Time;durP1;ratioP1;P1;durP2;ratioP2;P2;SDS_P1;SDS_P2;PMS_P1;PMS_P2;Temp;Humidity;BMP_temperature;BMP_pressure;BME280_temperature;BME280_humidity;BME280_pressure;Samples;Min_cycle;Max_cycle;Signal;HPM_P1;HPM_P2
2023/01/29 00:01:16;;;;;;;18.70;12.25;;;3.50;99.90;;;;;;5080393;28;20482;-63
2023/01/29 00:03:42;;;;;;;23.25;12.68;;;3.50;99.90;;;;;;5069458;28;20037;-64
2023/01/29 00:06:09;;;;;;;23.60;13.32;;;3.50;99.90;;;;;;5074398;28;20109;-64
2023/01/29 00:08:36;;;;;;;24.65;13.60;;;3.50;99.90;;;;;;5089883;28;20383;-61
2023/01/29 00:11:06;;;;;;;24.23;13.50;;;3.40;99.90;;;;;;5073795;28;20032;-64
2023/01/29 00:13:33;;;;;;;24.17;14.05;;;3.50;99.90;;;;;;5078584;28;20036;-63
2023/01/29 00:16:00;;;;;;;23.20;13.60;;;3.40;99.90;;;;;;5071583;28;20543;-62
2023/01/29 00:18:26;;;;;;;23.17;13.63;;;3.40;99.90;;;;;;5073226;28;20048;-64
2023/01/29 00:20:52;;;;;;;28.33;14.10;;;3.40;99.90;;;;;;5063211;28;20048;-64
2023/01/29 00:23:18;;;;;;;22.85;13.82;;;3.40;99.90;;;;;;5077945;28;20351;-64
2023/01/29 00:25:44;;;;;;;22.50;13.68;;;3.40;99.90;;;;;;5082556;28;20047;-63
2023/01/29 00:28:10;;;;;;;26.90;14.43;;;3.40;99.90;;;;;;5083618;28;20043;-60
2023/01/29 00:30:37;;;;;;;23.80;13.90;;;3.40;99.90;;;;;;5065903;28;20047;-64
2023/01/29 00:33:03;;;;;;;22.10;13.70;;;3.40;99.90;;;;;;5053333;28;20040;-63
2023/01/29 00:35:30;;;;;;;24.20;14.20;;;3.40;99.90;;;;;;5074746;28;20033;-61
2023/01/29 00:37:56;;;;;;;24.00;13.02;;;3.40;99.90;;;;;;5073501;28;20126;-62
2023/01/29 00:40:21;;;;;;;21.30;13.20;;;3.40;99.90;;;;;;5071588;28;20398;-63
2023/01/29 00:45:32;;;;;;;22.42;12.77;;;3.40;99.90;;;;;;5070093;28;20394;-64
2023/01/29 00:47:58;;;;;;;23.90;13.68;;;3.40;99.90;;;;;;5069671;28;20041;-63
2023/01/29 00:50:23;;;;;;;25.38;12.80;;;3.40;99.90;;;;;;5062993;28;20037;-64
2023/01/29 00:52:51;;;;;;;22.23;12.55;;;3.50;99.90;;;;;;5057642;28;20120;-63
2023/01/29 00:55:17;;;;;;;20.60;12.18;;;3.50;99.90;;;;;;5066049;28;20040;-64
2023/01/29 00:57:43;;;;;;;21.58;12.70;;;3.50;99.90;;;;;;5076940;28;20561;-64
2023/01/29 01:00:13;;;;;;;22.50;12.35;;;3.50;99.90;;;;;;5056146;28;20052;-63
2023/01/29 01:05:22;;;;;;;25.05;13.68;;;3.50;99.90;;;;;;5055464;28;20040;-63
2023/01/29 01:07:53;;;;;;;32.00;13.20;;;3.50;99.90;;;;;;5073231;28;20041;-62
2023/01/29 01:10:23;;;;;;;23.27;12.90;;;3.50;99.90;;;;;;5071831;28;20048;-62
2023/01/29 01:13:00;;;;;;;22.35;13.18;;;3.60;99.90;;;;;;5058049;28;20044;-61
2023/01/29 01:15:31;;;;;;;23.52;13.05;;;3.50;99.90;;;;;;5057237;28;20039;-64
2023/01/29 01:17:59;;;;;;;22.40;13.40;;;3.60;99.90;;;;;;5064953;28;20045;-63
2023/01/29 01:20:26;;;;;;;24.95;14.13;;;3.60;99.90;;;;;;5088875;28;20032;-63
2023/01/29 01:22:53;;;;;;;23.05;13.43;;;3.60;99.90;;;;;;5063313;28;20040;-64
2023/01/29 01:25:19;;;;;;;23.33;13.82;;;3.60;99.90;;;;;;5077994;28;20403;-62
2023/01/29 01:27:45;;;;;;;22.88;13.25;;;3.60;99.90;;;;;;5073626;28;20037;-62
2023/01/29 01:30:13;;;;;;;23.20;13.73;;;3.60;99.90;;;;;;5061934;28;20043;-63
2023/01/29 01:32:40;;;;;;;24.63;12.65;;;3.60;99.90;;;;;;5063775;28;20076;-63
2023/01/29 01:35:06;;;;;;;24.15;13.10;;;3.60;99.90;;;;;;5084895;28;20036;-61
2023/01/29 01:37:32;;;;;;;22.83;13.02;;;3.60;99.90;;;;;;5079123;28;20397;-63
2023/01/29 01:39:58;;;;;;;21.58;12.98;;;3.60;99.90;;;;;;5079337;28;20032;-63
2023/01/29 01:42:29;;;;;;;22.80;12.55;;;3.60;99.90;;;;;;5082397;28;20036;-62
2023/01/29 01:45:00;;;;;;;21.92;13.10;;;3.60;99.90;;;;;;5077740;28;21311;-63
2023/01/29 01:47:41;;;;;;;21.85;13.38;;;3.60;99.90;;;;;;5053848;28;20512;-62
2023/01/29 01:50:19;;;;;;;24.87;12.83;;;3.60;99.90;;;;;;5078584;28;20506;-60
2023/01/29 01:52:50;;;;;;;22.80;12.75;;;3.60;99.90;;;;;;5077872;28;20494;-64
2023/01/29 01:55:20;;;;;;;21.65;13.23;;;3.60;99.90;;;;;;5081964;28;20040;-62
2023/01/29 01:57:49;;;;;;;22.13;14.07;;;3.60;99.90;;;;;;5070075;28;20036;-62
2023/01/29 02:00:17;;;;;;;22.40;13.52;;;3.60;99.90;;;;;;5058147;28;20094;-64
2023/01/29 02:11:25;;;;;;;24.60;13.55;;;3.60;99.90;;;;;;5056038;28;20045;-64
2023/01/29 02:13:52;;;;;;;24.00;13.35;;;3.60;99.90;;;;;;5061960;28;20045;-64
2023/01/29 02:16:19;;;;;;;24.10;13.40;;;3.70;99.90;;;;;;5059628;28;20462;-65
2023/01/29 02:18:45;;;;;;;22.75;12.88;;;3.60;99.90;;;;;;5069812;28;20028;-65
2023/01/29 02:21:28;;;;;;;22.73;12.68;;;3.60;99.90;;;;;;5059330;28;20193;-63
2023/01/29 02:24:08;;;;;;;23.70;13.63;;;3.70;99.90;;;;;;5072032;28;20443;-65
2023/01/29 02:26:43;;;;;;;25.02;13.32;;;3.70;99.90;;;;;;5050611;28;20123;-64
2023/01/29 02:29:38;;;;;;;23.15;13.05;;;3.70;99.90;;;;;;5070595;28;20076;-63
2023/01/29 02:32:28;;;;;;;23.67;14.52;;;3.70;99.90;;;;;;5078326;28;20115;-65
2023/01/29 02:35:27;;;;;;;24.63;14.30;;;3.70;99.90;;;;;;5067874;28;20616;-63
2023/01/29 02:38:22;;;;;;;24.63;13.82;;;3.70;99.90;;;;;;5076798;28;20044;-63
2023/01/29 02:40:56;;;;;;;24.30;15.02;;;3.70;99.90;;;;;;5036556;28;20055;-63
2023/01/29 02:43:26;;;;;;;23.60;13.70;;;3.70;99.90;;;;;;5071708;28;20032;-64
2023/01/29 02:46:14;;;;;;;24.80;14.27;;;3.70;99.90;;;;;;5061897;28;20398;-64
2023/01/29 02:48:58;;;;;;;22.92;14.73;;;3.70;99.90;;;;;;5070043;28;20035;-64
2023/01/29 02:52:06;;;;;;;27.42;15.45;;;3.70;99.90;;;;;;5077782;28;20031;-63
2023/01/29 02:54:31;;;;;;;24.27;14.65;;;3.70;99.90;;;;;;5067451;28;20371;-63
2023/01/29 02:57:08;;;;;;;23.85;14.77;;;3.70;99.90;;;;;;5086070;28;20046;-60
2023/01/29 02:59:42;;;;;;;25.35;15.52;;;3.70;99.90;;;;;;5073655;28;20036;-64
2023/01/29 03:02:15;;;;;;;26.98;15.50;;;3.80;99.90;;;;;;5073440;28;20052;-64
2023/01/29 03:04:45;;;;;;;22.70;14.90;;;3.80;99.90;;;;;;5067978;28;20036;-61
2023/01/29 03:07:39;;;;;;;25.52;15.18;;;3.70;99.90;;;;;;5072059;28;20048;-63
2023/01/29 03:10:25;;;;;;;25.13;14.98;;;3.70;99.90;;;;;;5074789;28;20056;-63
2023/01/29 03:13:07;;;;;;;24.88;15.32;;;3.70;99.90;;;;;;5074882;28;20047;-64
2023/01/29 03:15:41;;;;;;;26.80;15.70;;;3.80;99.90;;;;;;5082840;28;20390;-64
2023/01/29 03:18:12;;;;;;;26.35;16.05;;;3.80;99.90;;;;;;5088890;28;20082;-65
2023/01/29 03:20:47;;;;;;;28.05;16.63;;;3.70;99.90;;;;;;5061669;28;20072;-62
2023/01/29 03:34:37;;;;;;;24.15;15.77;;;3.80;99.90;;;;;;5078802;28;20072;-64
2023/01/29 03:37:09;;;;;;;28.50;16.83;;;3.80;99.90;;;;;;5074635;28;20040;-63
2023/01/29 03:39:35;;;;;;;25.65;15.95;;;3.80;99.90;;;;;;5077906;28;20039;-63
2023/01/29 03:42:28;;;;;;;28.05;17.48;;;3.80;99.90;;;;;;5040530;28;20379;-63
2023/01/29 03:44:59;;;;;;;;;;;3.80;99.90;;;;;;5074299;28;20032;-64
2023/01/29 03:47:36;;;;;;;30.33;17.45;;;3.80;99.90;;;;;;5060243;28;19916;-64
2023/01/29 03:50:18;;;;;;;28.23;18.02;;;3.80;99.90;;;;;;5081294;28;20469;-63
2023/01/29 03:53:14;;;;;;;30.45;17.10;;;3.80;99.90;;;;;;5080860;28;20115;-63
2023/01/29 03:55:55;;;;;;;30.60;17.60;;;3.80;99.90;;;;;;5070593;28;20491;-64
2023/01/29 03:58:35;;;;;;;26.05;16.65;;;3.80;99.90;;;;;;5042709;28;20041;-64
2023/01/29 04:01:12;;;;;;;29.65;18.13;;;3.80;99.90;;;;;;5076384;28;20521;-61
2023/01/29 04:03:52;;;;;;;29.13;17.30;;;3.90;99.90;;;;;;5062479;28;20044;-64
2023/01/29 04:06:26;;;;;;;31.35;17.00;;;3.90;99.90;;;;;;5074236;28;20127;-64
2023/01/29 04:08:55;;;;;;;29.27;17.10;;;3.90;99.90;;;;;;5073541;28;20044;-63
2023/01/29 04:11:23;;;;;;;30.25;18.30;;;3.90;99.90;;;;;;5061121;28;20036;-65
2023/01/29 04:13:50;;;;;;;30.80;18.70;;;3.90;99.90;;;;;;5080333;28;20037;-64
2023/01/29 04:16:30;;;;;;;29.33;16.75;;;3.90;99.90;;;;;;5076794;28;20089;-64
2023/01/29 04:18:56;;;;;;;29.13;17.92;;;3.90;99.90;;;;;;5063244;28;20040;-63
2023/01/29 04:21:23;;;;;;;28.67;18.15;;;3.90;99.90;;;;;;5081866;28;20115;-63
2023/01/29 04:23:49;;;;;;;28.20;17.80;;;3.90;99.90;;;;;;5072673;28;20076;-63
2023/01/29 04:26:26;;;;;;;31.48;18.10;;;3.90;99.90;;;;;;5087333;28;20063;-63
2023/01/29 04:29:18;;;;;;;28.95;17.63;;;3.90;99.90;;;;;;5081315;28;20468;-63
2023/01/29 04:32:14;;;;;;;31.92;18.55;;;3.90;99.90;;;;;;5048993;28;20050;-62
2023/01/29 04:35:01;;;;;;;29.30;17.67;;;3.90;99.90;;;;;;5069257;28;20053;-63
2023/01/29 04:37:38;;;;;;;30.45;19.33;;;3.90;99.90;;;;;;5067725;28;20080;-64
2023/01/29 04:40:32;;;;;;;29.48;18.08;;;4.00;99.90;;;;;;5071037;28;20040;-63
2023/01/29 04:43:08;;;;;;;29.77;18.27;;;4.00;99.90;;;;;;5067725;28;20068;-64
2023/01/29 04:46:11;;;;;;;33.13;19.50;;;4.00;99.90;;;;;;5066226;28;20063;-64
2023/01/29 04:48:47;;;;;;;31.08;19.02;;;4.00;99.90;;;;;;5050242;28;20086;-64
2023/01/29 04:54:51;;;;;;;29.95;19.42;;;4.00;99.90;;;;;;5073501;28;20510;-64
2023/01/29 04:57:27;;;;;;;29.58;19.13;;;4.00;99.90;;;;;;5057585;28;20132;-63
2023/01/29 05:00:16;;;;;;;26.33;16.95;;;4.00;99.90;;;;;;5076448;28;20094;-64
2023/01/29 05:02:44;;;;;;;28.38;17.95;;;4.00;99.90;;;;;;5076406;28;20040;-63
2023/01/29 05:05:11;;;;;;;30.23;18.63;;;4.00;99.90;;;;;;5073914;28;20068;-63
2023/01/29 05:07:39;;;;;;;28.55;18.58;;;4.00;99.90;;;;;;5077095;28;20037;-63
2023/01/29 05:10:07;;;;;;;29.88;18.33;;;4.00;99.90;;;;;;5082942;28;20423;-63
2023/01/29 05:12:35;;;;;;;29.05;18.58;;;4.00;99.90;;;;;;5082670;28;20040;-63
2023/01/29 05:15:04;;;;;;;30.45;19.10;;;4.10;99.90;;;;;;5078228;28;20498;-61
2023/01/29 05:17:30;;;;;;;30.38;19.40;;;4.00;99.90;;;;;;5064647;28;20065;-64
2023/01/29 05:19:56;;;;;;;29.13;19.05;;;4.00;99.90;;;;;;5083055;28;20413;-63
2023/01/29 05:22:22;;;;;;;30.33;19.38;;;4.00;99.90;;;;;;5083427;28;20486;-63
2023/01/29 05:24:49;;;;;;;27.67;18.80;;;4.00;99.90;;;;;;5088897;28;20055;-60
2023/01/29 05:30:03;;;;;;;27.92;18.35;;;4.00;99.90;;;;;;5074630;28;20118;-64
2023/01/29 05:32:29;;;;;;;30.83;19.52;;;3.90;99.90;;;;;;5066283;28;20047;-64
2023/01/29 05:34:54;;;;;;;31.38;18.88;;;4.00;99.90;;;;;;5073360;28;20498;-64
2023/01/29 05:37:20;;;;;;;28.67;18.48;;;3.90;99.90;;;;;;5070070;28;20040;-64
2023/01/29 05:39:46;;;;;;;33.53;19.48;;;3.90;99.90;;;;;;5078932;28;20115;-63
2023/01/29 05:42:11;;;;;;;30.13;18.55;;;3.90;99.90;;;;;;5068860;28;20534;-65
2023/01/29 05:44:37;;;;;;;29.38;18.92;;;3.90;99.90;;;;;;5074911;28;20038;-64
2023/01/29 05:47:03;;;;;;;31.17;18.88;;;3.90;99.90;;;;;;5063299;28;20041;-64
2023/01/29 05:49:28;;;;;;;31.23;18.65;;;3.90;99.90;;;;;;5080835;28;20067;-63
2023/01/29 05:51:54;;;;;;;31.58;19.48;;;3.90;99.90;;;;;;5078714;28;20123;-62
2023/01/29 05:54:20;;;;;;;30.80;19.60;;;3.90;99.90;;;;;;5081721;28;20551;-65
2023/01/29 05:56:45;;;;;;;32.58;19.60;;;3.90;99.90;;;;;;5056323;28;20036;-64
2023/01/29 05:59:11;;;;;;;31.77;19.75;;;3.90;99.90;;;;;;5066032;28;20040;-63
2023/01/29 06:01:37;;;;;;;30.02;18.75;;;3.90;99.90;;;;;;5065657;28;20060;-64
2023/01/29 06:04:02;;;;;;;29.38;18.88;;;3.90;99.90;;;;;;5060447;28;20089;-61
2023/01/29 06:06:28;;;;;;;29.13;18.17;;;3.90;99.90;;;;;;5075427;28;20032;-64
2023/01/29 06:08:54;;;;;;;28.70;19.00;;;3.90;99.90;;;;;;5080955;28;20508;-64
2023/01/29 06:11:20;;;;;;;33.40;20.27;;;3.90;99.90;;;;;;5075391;28;20132;-65
2023/01/29 06:13:46;;;;;;;29.85;19.48;;;3.90;99.90;;;;;;5084060;28;20541;-64
2023/01/29 06:16:12;;;;;;;32.38;21.00;;;3.90;99.90;;;;;;5069840;28;20031;-64
2023/01/29 06:18:39;;;;;;;30.40;19.58;;;3.90;99.90;;;;;;5074706;28;20040;-64
2023/01/29 06:21:07;;;;;;;30.15;18.95;;;3.90;99.90;;;;;;5080380;28;20036;-63
2023/01/29 06:23:33;;;;;;;33.75;19.85;;;3.90;99.90;;;;;;5083379;28;20037;-63
2023/01/29 06:26:00;;;;;;;32.88;20.77;;;3.90;99.90;;;;;;5078178;28;20089;-64
2023/01/29 06:28:25;;;;;;;33.00;20.15;;;3.90;99.90;;;;;;5078313;28;20047;-64
2023/01/29 06:30:51;;;;;;;33.28;19.75;;;3.90;99.90;;;;;;5077913;28;20036;-62
2023/01/29 06:33:17;;;;;;;31.90;20.38;;;3.90;99.90;;;;;;5072476;28;20033;-65
2023/01/29 06:35:42;;;;;;;31.90;19.55;;;3.90;99.90;;;;;;5054472;28;20032;-64
2023/01/29 06:38:08;;;;;;;35.03;20.45;;;3.90;99.90;;;;;;5081438;28;20409;-63
2023/01/29 06:40:33;;;;;;;32.85;20.30;;;3.90;99.90;;;;;;5075284;28;20040;-62
2023/01/29 06:43:00;;;;;;;30.92;20.98;;;3.90;99.90;;;;;;5069462;28;20091;-64
2023/01/29 06:45:26;;;;;;;35.75;21.00;;;3.90;99.90;;;;;;5064283;28;20040;-61
2023/01/29 06:47:51;;;;;;;32.03;20.42;;;3.90;99.90;;;;;;5072953;28;20093;-63
2023/01/29 06:50:17;;;;;;;33.88;21.73;;;3.90;99.90;;;;;;5073177;28;20411;-64
2023/01/29 06:52:43;;;;;;;35.45;20.63;;;3.90;99.90;;;;;;5074363;28;20028;-64
2023/01/29 06:55:08;;;;;;;32.45;20.08;;;3.90;99.90;;;;;;5058246;28;20053;-64
2023/01/29 06:57:34;;;;;;;32.88;20.73;;;3.90;99.90;;;;;;5069146;28;20110;-63
2023/01/29 07:00:00;;;;;;;34.03;20.38;;;3.90;99.90;;;;;;5081040;28;20509;-60
2023/01/29 07:02:25;;;;;;;33.88;20.85;;;3.90;99.90;;;;;;5081487;28;20054;-64
2023/01/29 07:04:51;;;;;;;35.25;21.08;;;3.90;99.90;;;;;;5067615;28;20040;-64
2023/01/29 07:07:17;;;;;;;32.22;20.33;;;3.90;99.90;;;;;;5075096;28;20089;-63
2023/01/29 07:09:42;;;;;;;32.55;20.30;;;3.90;99.90;;;;;;5075103;28;20033;-64
2023/01/29 07:12:09;;;;;;;37.78;21.88;;;3.90;99.90;;;;;;5078721;28;20037;-61
2023/01/29 07:14:35;;;;;;;31.70;19.85;;;4.00;99.90;;;;;;5075197;28;20028;-65
2023/01/29 07:17:01;;;;;;;33.85;20.10;;;4.30;99.90;;;;;;5075340;28;20046;-63
2023/01/29 07:19:26;;;;;;;31.63;20.23;;;3.90;99.90;;;;;;5076538;28;20036;-61
2023/01/29 07:21:52;;;;;;;34.63;21.65;;;4.00;99.90;;;;;;5054028;28;20037;-64
2023/01/29 07:24:18;;;;;;;32.40;20.60;;;4.00;99.90;;;;;;5079681;28;20032;-65
2023/01/29 07:26:44;;;;;;;35.15;20.92;;;4.00;99.90;;;;;;5072822;28;20136;-64
2023/01/29 07:29:10;;;;;;;32.65;20.88;;;4.00;99.90;;;;;;5065825;28;20032;-63
2023/01/29 07:31:35;;;;;;;35.25;21.23;;;4.00;99.90;;;;;;5047043;28;20040;-63
2023/01/29 07:34:01;;;;;;;33.42;20.52;;;4.00;99.90;;;;;;5066843;28;20044;-60
2023/01/29 07:36:28;;;;;;;33.00;20.98;;;4.00;99.90;;;;;;5063236;28;20044;-63
2023/01/29 07:38:54;;;;;;;34.50;20.50;;;4.00;99.90;;;;;;5082600;28;20047;-64
2023/01/29 07:41:20;;;;;;;36.05;22.13;;;4.00;99.90;;;;;;5072593;28;20071;-63
2023/01/29 07:43:46;;;;;;;36.80;21.35;;;4.00;99.90;;;;;;5059077;28;20487;-62
2023/01/29 07:46:12;;;;;;;34.53;20.42;;;4.00;99.90;;;;;;5076663;28;20043;-63
2023/01/29 07:48:37;;;;;;;35.25;20.60;;;4.00;99.90;;;;;;5071035;28;20037;-62
2023/01/29 07:51:03;;;;;;;36.15;20.65;;;4.00;99.90;;;;;;5080529;28;20040;-63
2023/01/29 07:53:29;;;;;;;32.55;20.20;;;4.00;99.90;;;;;;5079372;28;20037;-63
2023/01/29 07:55:55;;;;;;;38.25;20.95;;;4.00;99.90;;;;;;5068099;28;20167;-63
2023/01/29 07:58:21;;;;;;;35.78;21.20;;;4.00;99.90;;;;;;5080980;28;20039;-63
2023/01/29 08:00:46;;;;;;;35.20;19.45;;;4.00;99.90;;;;;;5078797;28;20033;-63
2023/01/29 08:03:18;;;;;;;37.13;20.33;;;4.00;99.90;;;;;;5077809;28;20119;-62
2023/01/29 08:05:45;;;;;;;35.90;21.05;;;4.00;99.90;;;;;;5067088;28;20576;-62
2023/01/29 08:08:10;;;;;;;37.13;21.17;;;4.00;99.90;;;;;;5069933;28;20032;-63
2023/01/29 08:10:37;;;;;;;35.03;21.38;;;4.00;99.90;;;;;;5077370;28;20078;-61
2023/01/29 08:13:04;;;;;;;37.72;22.10;;;4.00;99.90;;;;;;5055505;28;20044;-63
2023/01/29 08:15:30;;;;;;;35.20;21.38;;;4.00;99.90;;;;;;5061493;28;20399;-63
2023/01/29 08:17:55;;;;;;;36.33;21.27;;;4.00;99.90;;;;;;5055740;28;20055;-63
2023/01/29 08:20:22;;;;;;;36.95;21.25;;;4.00;99.90;;;;;;5070907;28;20028;-63
2023/01/29 08:22:48;;;;;;;37.63;21.02;;;4.00;99.90;;;;;;5053093;28;20047;-63
2023/01/29 08:25:14;;;;;;;37.15;21.25;;;4.00;99.90;;;;;;5058859;28;20028;-63
2023/01/29 08:27:40;;;;;;;34.92;20.42;;;4.00;99.90;;;;;;5064534;28;20036;-61
2023/01/29 08:30:08;;;;;;;34.63;19.77;;;4.00;99.90;;;;;;5072051;28;20033;-63
2023/01/29 08:32:34;;;;;;;34.63;20.88;;;4.00;99.90;;;;;;5072903;28;20303;-63
2023/01/29 08:35:00;;;;;;;33.00;21.17;;;4.00;99.90;;;;;;5058942;28;20040;-64
2023/01/29 08:37:26;;;;;;;35.05;20.70;;;4.00;99.90;;;;;;5037735;28;20109;-64
2023/01/29 08:39:51;;;;;;;32.08;19.80;;;4.00;99.90;;;;;;5062521;28;20040;-63
2023/01/29 08:42:17;;;;;;;33.78;20.67;;;4.00;99.90;;;;;;5057062;28;20035;-63
2023/01/29 08:44:43;;;;;;;30.92;18.90;;;4.00;99.90;;;;;;5080062;28;20052;-64
2023/01/29 08:47:08;;;;;;;32.70;20.30;;;4.00;99.90;;;;;;5052070;28;20359;-62
2023/01/29 08:49:34;;;;;;;35.10;20.73;;;4.00;99.90;;;;;;5072455;28;20123;-62
2023/01/29 08:51:59;;;;;;;35.22;21.58;;;4.00;99.90;;;;;;5064572;28;20064;-62
2023/01/29 08:54:25;;;;;;;33.67;21.00;;;4.10;99.90;;;;;;5076501;28;20097;-65
2023/01/29 08:56:51;;;;;;;35.47;20.20;;;4.00;99.90;;;;;;5078375;28;20048;-62
2023/01/29 08:59:17;;;;;;;33.45;20.13;;;4.10;99.90;;;;;;5078356;28;20033;-61
2023/01/29 09:01:42;;;;;;;33.38;20.88;;;4.00;99.90;;;;;;5069355;28;20533;-62
2023/01/29 09:04:08;;;;;;;33.00;20.02;;;4.00;99.90;;;;;;5081157;28;20059;-62
2023/01/29 09:06:33;;;;;;;35.60;20.65;;;4.00;99.90;;;;;;5053551;28;20032;-64
2023/01/29 09:08:59;;;;;;;33.90;20.17;;;4.00;99.90;;;;;;5075149;28;20043;-62
2023/01/29 09:11:25;;;;;;;35.13;20.98;;;3.60;99.90;;;;;;5071465;28;20115;-62
2023/01/29 09:13:50;;;;;;;33.92;20.67;;;4.00;99.90;;;;;;5084180;28;20039;-61
2023/01/29 09:16:16;;;;;;;35.95;21.05;;;4.00;99.90;;;;;;5080937;28;20032;-62
2023/01/29 09:18:42;;;;;;;38.28;20.95;;;4.10;99.90;;;;;;5070033;28;20029;-64
2023/01/29 09:21:07;;;;;;;35.95;21.73;;;4.00;99.90;;;;;;5080732;28;20524;-61
2023/01/29 09:23:33;;;;;;;33.20;19.73;;;4.10;99.90;;;;;;5076843;28;20032;-64
2023/01/29 09:25:59;;;;;;;34.25;20.95;;;4.10;99.90;;;;;;5082241;28;20509;-65
2023/01/29 09:28:24;;;;;;;36.00;21.15;;;4.10;99.90;;;;;;5047279;28;20621;-64
2023/01/29 09:30:50;;;;;;;34.03;21.33;;;4.10;99.90;;;;;;5069987;28;20044;-65
2023/01/29 09:33:16;;;;;;;33.70;20.38;;;4.10;99.90;;;;;;5077264;28;20174;-65
2023/01/29 09:35:42;;;;;;;34.08;21.92;;;4.10;99.90;;;;;;5521135;22;20091;-64
2023/01/29 09:38:09;;;;;;;33.95;21.63;;;4.20;99.90;;;;;;5063484;28;20052;-65
2023/01/29 09:40:59;;;;;;;34.38;20.42;;;4.30;99.90;;;;;;5063283;28;20041;-60
2023/01/29 09:43:48;;;;;;;33.97;20.33;;;4.30;99.90;;;;;;5059491;28;20025;-65
2023/01/29 09:46:18;;;;;;;32.45;21.63;;;4.30;99.90;;;;;;5044301;28;20036;-65
2023/01/29 09:48:45;;;;;;;34.97;20.33;;;4.30;99.90;;;;;;5066551;28;20105;-65
2023/01/29 09:51:36;;;;;;;34.15;21.00;;;4.40;99.90;;;;;;5049881;28;20102;-64
2023/01/29 09:54:23;;;;;;;34.60;22.13;;;4.40;99.90;;;;;;5026608;28;20049;-65
2023/01/29 09:56:52;;;;;;;34.40;21.02;;;4.40;99.90;;;;;;5065519;28;20037;-61
2023/01/29 09:59:21;;;;;;;34.13;20.73;;;4.40;99.90;;;;;;5034551;28;20040;-64
2023/01/29 10:01:54;;;;;;;35.28;20.42;;;4.40;99.90;;;;;;5060662;28;20196;-64
2023/01/29 10:04:33;;;;;;;34.53;20.98;;;4.50;99.90;;;;;;5040612;28;20069;-64
2023/01/29 10:07:12;;;;;;;33.80;21.23;;;4.50;99.90;;;;;;5064599;28;20047;-62
2023/01/29 10:10:03;;;;;;;33.83;19.98;;;4.50;99.90;;;;;;5064024;28;20052;-63
2023/01/29 10:12:50;;;;;;;32.42;20.13;;;4.50;99.90;;;;;;5039152;28;20756;-64
2023/01/29 10:15:20;;;;;;;32.08;20.23;;;4.50;99.90;;;;;;5059119;28;20130;-64
2023/01/29 10:18:04;;;;;;;36.95;20.83;;;4.50;99.90;;;;;;5052391;28;20044;-63
2023/01/29 10:20:54;;;;;;;33.90;20.55;;;4.50;99.90;;;;;;5062969;28;20571;-64
2023/01/29 10:23:33;;;;;;;34.25;19.58;;;4.60;99.90;;;;;;5047763;28;20036;-65
2023/01/29 10:25:59;;;;;;;34.75;20.65;;;4.60;99.90;;;;;;5044359;28;20116;-64
2023/01/29 10:28:35;;;;;;;34.35;20.90;;;4.60;99.90;;;;;;5079839;28;20069;-65
2023/01/29 10:31:23;;;;;;;31.35;20.02;;;4.60;99.90;;;;;;5040787;28;20055;-64
2023/01/29 10:34:02;;;;;;;33.70;19.88;;;4.60;99.90;;;;;;5070018;28;20036;-64
2023/01/29 10:36:37;;;;;;;33.47;20.45;;;4.60;99.90;;;;;;5046205;28;20473;-65
2023/01/29 10:39:03;;;;;;;33.70;21.10;;;4.60;99.90;;;;;;5064874;28;20083;-63
2023/01/29 10:41:31;;;;;;;37.78;22.33;;;4.60;99.90;;;;;;5075241;28;20075;-64
2023/01/29 10:44:38;;;;;;;36.28;21.58;;;4.60;99.90;;;;;;5062477;28;20051;-64
2023/01/29 10:47:10;;;;;;;34.50;20.92;;;4.70;99.90;;;;;;5058474;28;20521;-63
2023/01/29 10:50:03;;;;;;;37.92;21.45;;;4.70;99.90;;;;;;5056780;28;20032;-65
2023/01/29 10:52:43;;;;;;;35.10;20.90;;;4.70;99.90;;;;;;5032472;28;20041;-60
2023/01/29 10:55:15;;;;;;;36.88;22.00;;;4.60;99.90;;;;;;5063970;28;20029;-64
2023/01/29 10:58:24;;;;;;;33.10;21.02;;;4.60;99.90;;;;;;5070636;28;20498;-63
2023/01/29 11:00:51;;;;;;;34.22;20.40;;;4.60;99.90;;;;;;5064060;28;20094;-65
2023/01/29 11:03:24;;;;;;;33.97;21.27;;;4.90;99.90;;;;;;5056227;28;20364;-64
2023/01/29 11:06:11;;;;;;;32.88;20.30;;;4.70;99.90;;;;;;5059657;28;20450;-64
2023/01/29 11:08:55;;;;;;;34.10;20.92;;;4.70;99.90;;;;;;5085285;28;20040;-62
2023/01/29 11:11:23;;;;;;;33.80;20.67;;;4.70;99.90;;;;;;5047306;28;20056;-64
2023/01/29 11:13:53;;;;;;;33.95;20.67;;;4.70;99.90;;;;;;5071093;28;20127;-63
2023/01/29 11:16:19;;;;;;;37.25;20.90;;;4.70;99.90;;;;;;5046450;28;20045;-64
2023/01/29 11:19:11;;;;;;;35.30;19.20;;;4.70;99.90;;;;;;5082823;28;20035;-64
2023/01/29 11:22:00;;;;;;;36.22;20.75;;;4.80;99.90;;;;;;5059989;28;20044;-65
2023/01/29 11:24:31;;;;;;;37.03;21.08;;;4.90;99.90;;;;;;5071216;28;20040;-63
2023/01/29 11:26:59;;;;;;;36.40;20.67;;;4.90;99.90;;;;;;5036656;28;20048;-62
2023/01/29 11:29:46;;;;;;;35.63;21.23;;;4.90;99.90;;;;;;5054497;28;20094;-62
2023/01/29 11:33:02;;;;;;;35.25;20.52;;;4.90;99.90;;;;;;5048731;28;20045;-61
2023/01/29 11:35:31;;;;;;;33.03;19.65;;;5.00;99.90;;;;;;5071969;28;20040;-61
2023/01/29 11:38:27;;;;;;;41.20;21.90;;;5.10;99.90;;;;;;5063129;28;20071;-62
2023/01/29 11:41:13;;;;;;;35.25;20.60;;;5.10;99.90;;;;;;5060887;28;20059;-62
2023/01/29 11:43:39;;;;;;;35.65;21.30;;;5.10;99.90;;;;;;5059486;28;20461;-62
2023/01/29 11:46:10;;;;;;;40.88;21.10;;;5.20;99.90;;;;;;5070676;28;20136;-62
2023/01/29 11:48:50;;;;;;;41.17;20.33;;;5.20;99.90;;;;;;5076091;28;20410;-62
2023/01/29 11:51:25;;;;;;;34.85;20.45;;;5.20;99.90;;;;;;5047781;28;20040;-64
2023/01/29 11:53:59;;;;;;;40.08;21.65;;;5.20;99.90;;;;;;5064445;28;20390;-62
2023/01/29 11:56:33;;;;;;;39.88;21.48;;;5.30;99.90;;;;;;5053771;28;20147;-62
2023/01/29 11:59:03;;;;;;;34.65;20.38;;;5.30;99.90;;;;;;5059804;28;20094;-62
2023/01/29 12:01:39;;;;;;;35.10;19.83;;;5.30;99.90;;;;;;5053087;28;20106;-64
2023/01/29 12:04:31;;;;;;;36.35;21.23;;;5.20;99.90;;;;;;5065611;28;20090;-61
2023/01/29 12:06:57;;;;;;;39.45;21.73;;;5.20;99.90;;;;;;5052991;28;20072;-63
2023/01/29 12:09:27;;;;;;;36.97;21.88;;;5.20;99.90;;;;;;5045663;28;20463;-63
2023/01/29 12:11:53;;;;;;;34.97;20.35;;;5.10;99.90;;;;;;5066201;28;20037;-62
2023/01/29 12:14:27;;;;;;;33.42;20.58;;;5.10;99.90;;;;;;5041197;28;20380;-61
2023/01/29 12:17:20;;;;;;;32.42;19.35;;;5.10;99.90;;;;;;5070342;28;20040;-64
2023/01/29 12:19:55;;;;;;;34.42;20.55;;;5.10;99.90;;;;;;5062125;28;20041;-64
2023/01/29 12:22:38;;;;;;;33.83;19.73;;;5.10;99.90;;;;;;5067024;28;20499;-64
2023/01/29 12:25:39;;;;;;;37.38;20.25;;;5.10;99.90;;;;;;5061741;28;20403;-63
2023/01/29 12:28:27;;;;;;;32.60;19.88;;;5.10;99.90;;;;;;5060440;28;20608;-63
2023/01/29 12:31:05;;;;;;;32.88;18.73;;;5.10;99.90;;;;;;5062716;28;20052;-62
2023/01/29 12:33:52;;;;;;;33.70;19.75;;;5.10;99.90;;;;;;5069857;28;20405;-65
2023/01/29 12:36:41;;;;;;;36.17;20.40;;;5.10;99.90;;;;;;5064940;28;20114;-61
2023/01/29 12:39:15;;;;;;;33.78;20.10;;;5.10;99.90;;;;;;5067239;28;20391;-64
2023/01/29 12:42:04;;;;;;;36.67;21.10;;;5.10;99.90;;;;;;5061800;28;20065;-62
2023/01/29 12:44:43;;;;;;;35.22;20.52;;;5.20;99.90;;;;;;5074537;28;20123;-63
2023/01/29 12:47:18;;;;;;;35.63;19.77;;;5.20;99.90;;;;;;5067554;28;20037;-64
2023/01/29 12:49:49;;;;;;;36.25;19.55;;;5.20;99.90;;;;;;5066385;28;20120;-61
2023/01/29 12:52:25;;;;;;;33.33;20.50;;;5.20;99.90;;;;;;5056844;28;20087;-63
2023/01/29 12:54:57;;;;;;;35.72;20.00;;;5.10;99.90;;;;;;5050756;28;20120;-63
2023/01/29 12:57:33;;;;;;;34.17;19.20;;;5.10;99.90;;;;;;5047904;28;20045;-63
2023/01/29 13:00:05;;;;;;;36.03;21.10;;;5.10;99.90;;;;;;5044858;28;20044;-63
2023/01/29 13:03:16;;;;;;;31.25;19.17;;;5.10;99.90;;;;;;5047475;28;20427;-63
2023/01/29 13:09:28;;;;;;;33.13;19.52;;;5.10;99.90;;;;;;5065889;28;20032;-63
2023/01/29 13:12:11;;;;;;;36.28;20.00;;;5.00;99.90;;;;;;5066033;28;20072;-63
2023/01/29 13:14:46;;;;;;;;;;;5.00;99.90;;;;;;5071359;28;20114;-63
2023/01/29 13:17:19;;;;;;;32.17;19.52;;;5.00;99.90;;;;;;5061642;28;19924;-63
2023/01/29 13:19:47;;;;;;;;;;;5.00;99.90;;;;;;5072789;28;20418;-62
2023/01/29 13:22:24;;;;;;;32.70;18.48;;;5.00;99.90;;;;;;5044822;28;19916;-62
2023/01/29 13:24:51;;;;;;;34.60;20.67;;;5.00;99.90;;;;;;5045590;28;20049;-63
2023/01/29 13:27:24;;;;;;;35.22;20.98;;;4.90;99.90;;;;;;5070533;28;20072;-63
2023/01/29 13:29:51;;;;;;;35.67;21.45;;;5.00;99.90;;;;;;5062487;28;20478;-63
2023/01/29 13:32:27;;;;;;;34.78;19.13;;;4.90;99.90;;;;;;5044238;28;20044;-63
2023/01/29 13:34:57;;;;;;;36.97;21.13;;;4.90;99.90;;;;;;5071546;28;20074;-63
2023/01/29 13:37:28;;;;;;;39.35;22.23;;;4.90;99.90;;;;;;5071633;28;20165;-64
2023/01/29 13:39:57;;;;;;;35.45;21.00;;;4.90;99.90;;;;;;5053164;28;20044;-63